createdAt,value
2019-02-15T00:01:35.885Z,19.20
2019-02-15T00:04:25.655Z,18.03
2019-02-15T00:07:15.399Z,16.83
2019-02-15T00:10:05.279Z,15.57
2019-02-15T00:12:54.962Z,16.23
2019-02-15T00:15:37.395Z,14.87
2019-02-15T00:18:46.209Z,16.07
2019-02-15T00:21:54.867Z,15.07
2019-02-15T00:24:44.654Z,15.40
2019-02-15T00:27:27.357Z,16.00
2019-02-15T00:30:17.168Z,16.43
2019-02-15T00:33:07.096Z,18.43
2019-02-15T00:35:49.959Z,16.40
2019-02-15T00:41:27.987Z,16.50
2019-02-15T00:44:17.791Z,16.87
2019-02-15T00:51:01.339Z,17.53
2019-02-15T00:54:02.277Z,17.20
2019-02-15T00:57:10.915Z,16.83
2019-02-15T01:00:11.903Z,17.67
2019-02-15T01:03:20.433Z,16.87
2019-02-15T01:06:21.503Z,15.57
2019-02-15T01:09:22.786Z,16.90
2019-02-15T01:15:07.871Z,16.37
2019-02-15T01:18:16.776Z,17.00
2019-02-15T01:20:59.088Z,15.73
2019-02-15T01:23:48.806Z,16.67
2019-02-15T01:26:50.356Z,14.97
2019-02-15T01:29:58.881Z,15.90
2019-02-15T01:36:20.482Z,16.77
2019-02-15T01:39:09.874Z,16.17
2019-02-15T01:42:18.436Z,16.70
2019-02-15T01:45:13.898Z,16.23
2019-02-15T01:48:03.595Z,16.03
2019-02-15T01:50:45.979Z,15.33
2019-02-15T01:53:35.703Z,14.93
2019-02-15T01:56:18.375Z,16.13
2019-02-15T01:59:08.076Z,15.20
2019-02-15T02:01:50.201Z,15.07
2019-02-15T02:04:40.020Z,14.60
2019-02-15T02:07:23.273Z,15.57
2019-02-15T02:13:14.338Z,14.47
2019-02-15T02:16:04.177Z,13.80
2019-02-15T02:18:46.314Z,13.60
2019-02-15T02:21:36.099Z,13.67
2019-02-15T02:24:18.918Z,13.83
2019-02-15T02:27:08.662Z,14.10
2019-02-15T02:29:51.314Z,14.53
2019-02-15T02:32:41.095Z,13.40
2019-02-15T02:35:30.835Z,13.10
2019-02-15T02:38:12.818Z,11.53
2019-02-15T02:41:02.606Z,11.33
2019-02-15T02:43:59.357Z,11.40
2019-02-15T02:46:36.345Z,11.30
2019-02-15T02:52:14.548Z,11.47
2019-02-15T02:54:45.233Z,12.80
2019-02-15T02:57:34.966Z,11.70
2019-02-15T03:00:17.805Z,13.40
2019-02-15T03:03:07.700Z,14.67
2019-02-15T03:05:57.458Z,13.70
2019-02-15T03:08:47.229Z,13.37
2019-02-15T03:11:36.997Z,13.23
2019-02-15T03:14:19.169Z,13.07
2019-02-15T03:17:08.886Z,13.20
2019-02-15T03:19:58.628Z,13.23
2019-02-15T03:22:48.433Z,13.37
2019-02-15T03:25:30.603Z,13.20
2019-02-15T03:28:20.313Z,11.97
2019-02-15T03:31:02.693Z,13.17
2019-02-15T03:33:52.455Z,13.03
2019-02-15T03:36:53.717Z,13.20
2019-02-15T03:40:21.371Z,12.90
2019-02-15T03:43:04.383Z,13.80
2019-02-15T03:45:54.209Z,12.83
2019-02-15T03:48:36.337Z,13.47
2019-02-15T03:51:26.101Z,13.17
2019-02-15T03:54:08.720Z,13.70
2019-02-15T03:56:58.487Z,14.20
2019-02-15T03:59:41.338Z,14.70
2019-02-15T04:02:31.044Z,14.60
2019-02-15T04:05:13.316Z,14.47
2019-02-15T04:08:03.042Z,14.67
2019-02-15T04:10:45.655Z,13.97
2019-02-15T04:13:35.467Z,12.93
2019-02-15T04:16:25.241Z,13.30
2019-02-15T04:19:15.027Z,12.27
2019-02-15T04:22:04.879Z,12.83
2019-02-15T04:24:54.716Z,13.27
2019-02-15T04:27:44.453Z,12.83
2019-02-15T04:30:34.235Z,13.03
2019-02-15T04:33:24.045Z,12.80
2019-02-15T04:36:13.848Z,12.37
2019-02-15T04:42:00.857Z,11.53
2019-02-15T04:44:50.689Z,13.00
2019-02-15T04:47:32.873Z,13.60
2019-02-15T04:50:22.681Z,13.00
2019-02-15T04:53:04.977Z,13.73
2019-02-15T04:55:54.718Z,13.00
2019-02-15T04:58:36.970Z,14.27
2019-02-15T05:04:17.480Z,12.93
2019-02-15T05:06:48.109Z,15.80
2019-02-15T05:09:37.950Z,13.87
2019-02-15T05:12:27.660Z,14.27
2019-02-15T05:15:11.175Z,14.40
2019-02-15T05:18:00.913Z,13.60
2019-02-15T05:20:43.060Z,13.37
2019-02-15T05:23:32.851Z,15.33
2019-02-15T05:26:14.846Z,15.53
2019-02-15T05:29:04.579Z,15.57
2019-02-15T05:31:46.936Z,15.10
2019-02-15T05:34:36.646Z,15.70
2019-02-15T05:37:18.691Z,16.70
2019-02-15T05:43:09.818Z,16.20
2019-02-15T05:48:56.400Z,16.30
2019-02-15T05:51:47.506Z,15.40
2019-02-15T05:54:30.003Z,15.07
2019-02-15T05:57:19.738Z,15.30
2019-02-15T06:00:01.730Z,15.17
2019-02-15T06:02:51.476Z,15.90
2019-02-15T06:05:34.040Z,15.57
2019-02-15T06:08:16.165Z,16.80
2019-02-15T06:11:07.843Z,16.93
2019-02-15T06:13:57.354Z,17.13
2019-02-15T06:16:39.938Z,18.40
2019-02-15T06:19:22.104Z,17.83
2019-02-15T06:22:11.812Z,18.73
2019-02-15T06:24:54.948Z,18.30
2019-02-15T06:27:44.750Z,17.57
2019-02-15T06:30:34.575Z,17.80
2019-02-15T06:33:24.382Z,16.70
2019-02-15T06:36:14.168Z,15.57
2019-02-15T06:39:16.152Z,16.27
2019-02-15T06:41:58.544Z,16.50
2019-02-15T06:44:48.684Z,16.77
2019-02-15T06:47:38.497Z,17.00
2019-02-15T06:50:28.206Z,15.57
2019-02-15T06:53:17.941Z,15.67
2019-02-15T06:56:07.691Z,16.00
2019-02-15T06:59:16.206Z,16.13
2019-02-15T07:02:03.722Z,15.77
2019-02-15T07:05:12.337Z,15.60
2019-02-15T07:08:14.870Z,16.07
2019-02-15T07:10:57.147Z,20.53
2019-02-15T07:13:46.864Z,21.50
2019-02-15T07:16:29.122Z,21.87
2019-02-15T07:19:18.880Z,22.20
2019-02-15T07:22:01.620Z,22.77
2019-02-15T07:24:51.379Z,23.20
2019-02-15T07:27:33.656Z,21.03
2019-02-15T07:30:16.555Z,20.77
2019-02-15T07:33:06.342Z,19.63
2019-02-15T07:35:56.070Z,19.47
2019-02-15T07:38:45.915Z,20.40
2019-02-15T07:41:35.759Z,19.27
2019-02-15T07:44:18.166Z,17.83
2019-02-15T07:47:07.951Z,18.53
2019-02-15T07:49:50.588Z,19.47
2019-02-15T07:52:40.336Z,19.57
2019-02-15T07:55:22.929Z,20.13
2019-02-15T07:58:12.674Z,19.77
2019-02-15T08:00:55.960Z,18.03
2019-02-15T08:03:45.845Z,18.17
2019-02-15T08:06:28.363Z,18.07
2019-02-15T08:09:18.211Z,17.87
2019-02-15T08:12:08.160Z,18.27
2019-02-15T08:14:57.952Z,17.80
2019-02-15T08:17:47.833Z,18.93
2019-02-15T08:20:37.622Z,18.10
2019-02-15T08:26:42.081Z,19.37
2019-02-15T08:29:31.870Z,19.57
2019-02-15T08:32:21.636Z,19.70
2019-02-15T08:35:11.516Z,21.30
2019-02-15T08:38:01.337Z,20.37
2019-02-15T08:40:51.269Z,22.53
2019-02-15T08:43:41.099Z,24.03
2019-02-15T08:46:30.899Z,25.70
2019-02-15T08:49:13.113Z,23.03
2019-02-15T08:52:02.895Z,21.87
2019-02-15T08:54:52.741Z,21.77
2019-02-15T08:57:42.523Z,22.00
2019-02-15T09:00:51.455Z,23.40
2019-02-15T09:03:34.385Z,21.70
2019-02-15T09:06:24.203Z,21.77
2019-02-15T09:09:14.030Z,21.57
2019-02-15T09:12:03.780Z,21.57
2019-02-15T09:14:53.602Z,24.17
2019-02-15T09:17:43.401Z,21.03
2019-02-15T09:20:33.581Z,20.40
2019-02-15T09:23:23.387Z,21.87
2019-02-15T09:29:07.381Z,22.57
2019-02-15T09:31:57.155Z,22.33
2019-02-15T09:34:39.156Z,20.93
2019-02-15T09:37:29.123Z,21.30
2019-02-15T09:40:19.010Z,21.40
2019-02-15T09:43:08.757Z,20.07
2019-02-15T09:45:58.677Z,20.43
2019-02-15T09:48:48.485Z,21.50
2019-02-15T09:51:38.323Z,21.43
2019-02-15T09:54:28.145Z,20.33
2019-02-15T09:57:17.916Z,20.17
2019-02-15T10:00:08.129Z,19.23
2019-02-15T10:02:57.911Z,20.13
2019-02-15T10:05:47.730Z,19.63
2019-02-15T10:08:37.538Z,20.10
2019-02-15T10:11:27.354Z,20.03
2019-02-15T10:14:17.129Z,19.47
2019-02-15T10:17:06.869Z,18.70
2019-02-15T10:19:56.660Z,18.63
2019-02-15T10:22:59.806Z,18.70
2019-02-15T10:25:41.772Z,18.67
2019-02-15T10:28:31.487Z,18.17
2019-02-15T10:31:14.364Z,18.10
2019-02-15T10:34:04.100Z,18.53
2019-02-15T10:36:46.582Z,17.67
2019-02-15T10:39:36.322Z,16.87
2019-02-15T10:42:18.836Z,16.90
2019-02-15T10:45:09.560Z,16.80
2019-02-15T10:47:56.122Z,15.13
2019-02-15T10:50:45.894Z,16.93
2019-02-15T10:53:28.176Z,16.87
2019-02-15T10:55:58.872Z,15.90
2019-02-15T10:58:48.658Z,16.77
2019-02-15T11:01:38.716Z,16.53
2019-02-15T11:04:28.551Z,15.63
2019-02-15T11:07:18.295Z,17.20
2019-02-15T11:10:01.305Z,14.90
2019-02-15T11:12:51.018Z,16.07
2019-02-15T11:15:37.349Z,15.50
2019-02-15T11:18:27.095Z,16.60
2019-02-15T11:21:09.108Z,16.20
2019-02-15T11:23:59.217Z,16.27
2019-02-15T11:26:41.368Z,15.20
2019-02-15T11:29:31.489Z,15.13
2019-02-15T11:35:11.678Z,14.93
2019-02-15T11:38:01.421Z,14.10
2019-02-15T11:40:51.199Z,13.77
2019-02-15T11:43:41.101Z,14.07
2019-02-15T11:46:30.889Z,15.43
2019-02-15T11:49:20.693Z,15.10
2019-02-15T11:52:10.765Z,13.83
2019-02-15T11:55:00.569Z,15.63
2019-02-15T11:57:50.356Z,15.33
2019-02-15T12:00:40.159Z,14.30
2019-02-15T12:03:22.183Z,14.10
2019-02-15T12:06:12.125Z,13.40
2019-02-15T12:09:01.914Z,14.23
2019-02-15T12:11:51.756Z,12.83
2019-02-15T12:14:41.555Z,14.33
2019-02-15T12:17:31.345Z,12.47
2019-02-15T12:20:21.209Z,14.83
2019-02-15T12:23:11.030Z,13.53
2019-02-15T12:26:00.832Z,12.90
2019-02-15T12:28:50.657Z,13.47
2019-02-15T12:31:40.443Z,13.53
2019-02-15T12:34:30.282Z,12.73
2019-02-15T12:37:20.081Z,13.57
2019-02-15T12:40:10.025Z,13.43
2019-02-15T12:42:59.950Z,11.93
2019-02-15T12:45:49.770Z,13.40
2019-02-15T12:48:39.521Z,25.97
2019-02-15T12:51:29.343Z,20.90
2019-02-15T12:54:19.133Z,12.60
2019-02-15T12:57:21.833Z,11.17
2019-02-15T13:00:05.363Z,11.93
2019-02-15T13:02:55.091Z,11.20
2019-02-15T13:05:39.191Z,10.67
2019-02-15T13:08:28.900Z,10.60
2019-02-15T13:11:11.078Z,10.67
2019-02-15T13:17:02.262Z,10.77
2019-02-15T13:19:52.000Z,11.83
2019-02-15T13:22:34.504Z,12.80
2019-02-15T13:25:24.376Z,12.83
2019-02-15T13:28:06.628Z,13.00
2019-02-15T13:30:48.710Z,12.80
2019-02-15T13:33:38.417Z,12.27
2019-02-15T13:36:20.462Z,14.10
2019-02-15T13:39:22.506Z,12.40
2019-02-15T13:42:04.768Z,12.90
2019-02-15T13:44:54.473Z,12.63
2019-02-15T13:47:38.447Z,14.80
2019-02-15T13:50:28.137Z,13.30
2019-02-15T13:53:10.490Z,12.90
2019-02-15T13:56:00.246Z,11.30
2019-02-15T13:58:43.317Z,11.73
2019-02-15T14:01:33.052Z,12.27
2019-02-15T14:04:15.460Z,12.83
2019-02-15T14:10:27.469Z,12.87
2019-02-15T14:13:17.178Z,11.53
2019-02-15T14:16:26.007Z,12.67
2019-02-15T14:19:34.804Z,12.87
2019-02-15T14:22:17.685Z,12.90
2019-02-15T14:25:08.156Z,12.50
2019-02-15T14:27:50.510Z,12.57
2019-02-15T14:30:40.392Z,12.70
2019-02-15T14:33:30.200Z,11.57
2019-02-15T14:36:20.066Z,11.20
2019-02-15T14:39:12.228Z,11.47
2019-02-15T14:42:02.418Z,11.17
2019-02-15T14:44:52.236Z,12.20
2019-02-15T14:47:35.020Z,13.13
2019-02-15T14:53:28.390Z,13.27
2019-02-15T14:56:10.756Z,13.50
2019-02-15T14:59:00.687Z,12.93
2019-02-15T15:01:50.473Z,13.10
2019-02-15T15:04:41.478Z,13.03
2019-02-15T15:07:25.957Z,13.47
2019-02-15T15:10:15.742Z,13.50
2019-02-15T15:13:05.592Z,13.47
2019-02-15T15:15:55.403Z,12.53
2019-02-15T15:19:04.315Z,13.50
2019-02-15T15:21:47.445Z,13.20
2019-02-15T15:24:37.280Z,12.73
2019-02-15T15:27:27.083Z,12.57
2019-02-15T15:30:24.346Z,12.77
2019-02-15T15:36:18.398Z,13.20
2019-02-15T15:39:01.735Z,12.67
2019-02-15T15:41:51.513Z,13.10
2019-02-15T15:44:34.067Z,13.67
2019-02-15T15:47:23.823Z,13.17
2019-02-15T15:50:13.921Z,12.10
2019-02-15T15:53:03.777Z,13.47
2019-02-15T15:58:46.773Z,13.03
2019-02-15T16:01:37.049Z,13.03
2019-02-15T16:04:26.803Z,13.57
2019-02-15T16:07:16.603Z,13.77
2019-02-15T16:10:07.569Z,12.67
2019-02-15T16:12:57.307Z,13.23
2019-02-15T16:15:47.235Z,14.20
2019-02-15T16:18:36.967Z,14.90
2019-02-15T16:21:19.579Z,14.57
2019-02-15T16:24:12.684Z,15.07
2019-02-15T16:26:53.613Z,14.23
2019-02-15T16:29:55.833Z,16.20
2019-02-15T16:32:37.990Z,15.30
2019-02-15T16:35:27.681Z,15.03
2019-02-15T16:38:09.837Z,14.70
2019-02-15T16:40:59.551Z,14.27
2019-02-15T16:43:42.237Z,14.17
2019-02-15T16:46:24.355Z,14.30
2019-02-15T16:49:14.098Z,15.07
2019-02-15T16:51:56.452Z,13.00
2019-02-15T16:54:46.186Z,14.27
2019-02-15T16:57:29.092Z,13.40
2019-02-15T17:00:19.125Z,13.80
2019-02-15T17:03:09.392Z,13.60
2019-02-15T17:06:11.739Z,13.63
2019-02-15T17:08:53.827Z,12.90
2019-02-15T17:11:43.586Z,12.37
2019-02-15T17:14:33.304Z,12.70
2019-02-15T17:17:15.841Z,11.37
2019-02-15T17:20:05.957Z,11.37
2019-02-15T17:22:55.884Z,11.83
2019-02-15T17:28:39.576Z,11.77
2019-02-15T17:31:21.665Z,11.73
2019-02-15T17:34:11.421Z,12.50
2019-02-15T17:37:01.190Z,12.70
2019-02-15T17:39:50.965Z,17.57
2019-02-15T17:42:53.442Z,15.37
2019-02-15T17:45:36.285Z,15.03
2019-02-15T17:48:25.981Z,14.87
2019-02-15T17:51:08.642Z,14.00
2019-02-15T17:53:58.353Z,15.17
2019-02-15T17:56:40.516Z,14.23
2019-02-15T17:59:30.228Z,18.30
2019-02-15T18:02:12.675Z,16.03
2019-02-15T18:05:02.366Z,15.07
2019-02-15T18:07:45.839Z,15.57
2019-02-15T18:10:35.588Z,18.83
2019-02-15T18:13:18.083Z,19.40
2019-02-15T18:16:07.800Z,20.40
2019-02-15T18:18:50.067Z,19.07
2019-02-15T18:21:39.787Z,17.80
2019-02-15T18:24:22.180Z,17.30
2019-02-15T18:27:11.980Z,17.30
2019-02-15T18:30:01.735Z,16.67
2019-02-15T18:32:51.520Z,15.37
2019-02-15T18:35:41.489Z,15.73
2019-02-15T18:38:31.257Z,15.07
2019-02-15T18:41:21.018Z,15.40
2019-02-15T18:44:23.131Z,15.77
2019-02-15T18:47:05.584Z,14.73
2019-02-15T18:49:55.317Z,15.93
2019-02-15T18:52:45.092Z,16.50
2019-02-15T18:55:27.148Z,15.77
2019-02-15T18:58:17.075Z,16.33
2019-02-15T19:01:06.847Z,18.13
2019-02-15T19:03:56.642Z,17.93
2019-02-15T19:06:58.803Z,17.60
2019-02-15T19:09:41.247Z,18.37
2019-02-15T19:12:30.997Z,18.47
2019-02-15T19:15:13.623Z,18.83
2019-02-15T19:18:03.328Z,17.90
2019-02-15T19:20:45.386Z,18.90
2019-02-15T19:23:35.133Z,17.70
2019-02-15T19:26:17.195Z,15.80
2019-02-15T19:29:06.936Z,18.20
2019-02-15T19:31:49.429Z,17.03
2019-02-15T19:37:40.675Z,15.90
2019-02-15T19:40:30.433Z,14.03
2019-02-15T19:43:12.956Z,15.17
2019-02-15T19:45:55.552Z,14.43
2019-02-15T19:48:45.375Z,14.63
2019-02-15T19:51:35.968Z,14.63
2019-02-15T19:54:20.647Z,15.80
2019-02-15T19:57:29.515Z,14.20
2019-02-15T20:00:19.365Z,13.97
2019-02-15T20:03:09.190Z,14.13
2019-02-15T20:05:58.961Z,13.53
2019-02-15T20:08:48.707Z,13.37
2019-02-15T20:14:30.817Z,14.47
2019-02-15T20:17:20.500Z,14.17
2019-02-15T20:20:02.543Z,14.47
2019-02-15T20:22:52.296Z,15.30
2019-02-15T20:25:34.359Z,15.40
2019-02-15T20:28:24.074Z,17.03
2019-02-15T20:31:07.063Z,15.27
2019-02-15T20:33:56.813Z,15.90
2019-02-15T20:36:39.303Z,15.23
2019-02-15T20:39:29.059Z,15.40
2019-02-15T20:42:11.434Z,16.17
2019-02-15T20:45:01.170Z,14.57
2019-02-15T20:47:43.647Z,14.70
2019-02-15T20:50:26.455Z,14.57
2019-02-15T20:53:16.237Z,14.07
2019-02-15T20:56:18.555Z,14.30
2019-02-15T20:59:01.498Z,14.73
2019-02-15T21:01:51.263Z,13.87
2019-02-15T21:04:34.211Z,15.03
2019-02-15T21:10:27.675Z,17.67
2019-02-15T21:13:10.062Z,16.40
2019-02-15T21:15:59.952Z,16.97
2019-02-15T21:19:02.859Z,15.60
2019-02-15T21:21:45.376Z,15.97
2019-02-15T21:24:35.086Z,15.50
2019-02-15T21:27:17.551Z,16.27
2019-02-15T21:30:09.273Z,14.93
2019-02-15T21:32:52.024Z,16.07
2019-02-15T21:38:43.208Z,15.30
2019-02-15T21:41:32.983Z,14.23
2019-02-15T21:44:15.109Z,14.10
2019-02-15T21:47:04.929Z,14.07
2019-02-15T21:49:47.556Z,12.90
2019-02-15T21:52:43.834Z,13.80
2019-02-15T21:55:20.954Z,12.70
2019-02-15T21:58:10.711Z,12.53
2019-02-15T22:00:53.506Z,13.03
2019-02-15T22:03:43.216Z,14.20
2019-02-15T22:06:27.723Z,12.47
2019-02-15T22:12:01.053Z,13.63
2019-02-15T22:14:50.842Z,13.90
2019-02-15T22:17:33.741Z,13.83
2019-02-15T22:23:17.514Z,14.33
2019-02-15T22:26:03.648Z,15.27
2019-02-15T22:28:48.080Z,13.47
2019-02-15T22:31:38.124Z,13.80
2019-02-15T22:34:27.946Z,13.83
2019-02-15T22:37:17.702Z,13.73
2019-02-15T22:40:20.215Z,13.47
2019-02-15T22:43:30.447Z,12.90
2019-02-15T22:46:20.243Z,13.40
2019-02-15T22:52:13.738Z,12.03
2019-02-15T22:54:56.225Z,12.60
2019-02-15T22:57:45.976Z,13.53
2019-02-15T23:01:14.027Z,12.43
2019-02-15T23:03:56.760Z,12.50
2019-02-15T23:06:40.842Z,12.97
2019-02-15T23:09:30.614Z,12.27
2019-02-15T23:12:20.442Z,14.43
2019-02-15T23:15:02.732Z,12.20
2019-02-15T23:17:52.642Z,11.93
2019-02-15T23:20:45.303Z,11.73
2019-02-15T23:23:28.322Z,11.03
2019-02-15T23:26:18.144Z,12.20
2019-02-15T23:29:07.951Z,11.43
2019-02-15T23:31:57.749Z,11.97
2019-02-15T23:34:47.498Z,11.93
2019-02-15T23:37:37.233Z,12.50
2019-02-15T23:40:48.284Z,12.13
2019-02-15T23:43:38.029Z,12.03
2019-02-15T23:46:21.425Z,11.60
2019-02-15T23:49:11.765Z,11.67
2019-02-15T23:52:22.208Z,12.63
